Airfield :
LOGIN :

Register | Disclaimer

   EN    FR    IT 

 










Legend :    VFR   Marginal VFR   IFR   Intensive IFR   Very Intensive IFR
Visi :
Ceiling :
>= 8 km
>= 3000ft
5 to 8 km
1000 to 3000 ft
1500m to 5 km
500 to 1000 ft
800 to 1500m
200 to 500 ft
< 800m
< 200 ft
Symbols :   Thunderstorms  Fog  Heavy snow  Heavy precipitations  Wind > 20 kt
SIGMETs :     Misc.  Thunderstorms  Icing  Turbulence  Mountain Waves  Volcanic Ashes







- Airport Elevation : 13 ft
- IATA code : CEQ
- Download approach charts


LFMD - Cannes Mandelieu

CURRENT METAR :
  • 181200Z AUTO 16006KT 120V190 CAVOK 17/12 Q1016 NOSIG

EXPIRED METARs :
  • 181130Z AUTO 15006KT 110V190 CAVOK 16/11 Q1017 NOSIG
  • 181100Z AUTO 14004KT 090V180 CAVOK 17/11 Q1017 NOSIG
  • 181030Z AUTO 16005KT 130V200 CAVOK 16/10 Q1017 NOSIG
  • 181000Z AUTO 00000KT CAVOK 17/07 Q1017 BECMG 22010KT
  • 180930Z AUTO 01004KT 330V060 CAVOK 14/05 Q1017 BECMG 22010KT

TAF TAF LFMD
Valid from the 18 at 09:00 until the 19 at 09:00 UTC


180800Z 1809/1909 34008KT CAVOK
BECMG 1810/1812 22010KT
BECMG 1818/1820 34008KT FEW020
BECMG 1907/1909 05010KT
ATIS : +33 4 93 48 73 23
No reported NOTAMs for that airfield.



MET'MAP, your aeronautical weather chart ! - Copyright ORBIFLY December 2007 - Disclaimer

ORBIFLY MET'MAP TEAM :

Programming & Development : Alexandra Zaïnal
Concept & Development : Baudouin d'Aumeries
Co-Development & Prog : Marc-Olivier Méhu
Technical & hardware support : Manuel Goepfert

Contact : metmap@orbifly.com




SOURCES & CREDITS :

   NOAA